Shir Khan — RO4503 — position and weather

sailwx.info

Track history (hours):
 
Tides and Currents Weather Stations Pressure Air Temp Water Temp Dewpoint Dewpoint Depression Visibility Wind Speed Wind Dir Waves Ship Positions

Shir Khan

Last reported at 2017-Dec-15 19:03 UTC. Time now 2018-Jan-18 13:44 UTC.
Position N 44°23' E 028°02'.
Warning: this ship's position is 33 days out of date.

Length 110 m; draft 0.2 m.

Type: Ship. MMSI: 211515160.

Date/timePositionNaut miles runAvg speedWind from/ knotsBaromVisibWave heightAir tempDewpointWater temp
2017-Dec-15 19:03N 44°23' E 028°02'4 4.2
2017-Dec-15 18:06N 44°19' E 028°03'0 3.4
2017-Dec-15 18:00N 44°18' E 028°03'3 6.2
2017-Dec-15 17:31N 44°16' E 028°06'3 6.9
2017-Dec-15 17:00N 44°16' E 028°11'4 7.0
2017-Dec-15 16:31N 44°15' E 028°16'3 7.0
2017-Dec-15 16:00N 44°15' E 028°21'3 6.8
2017-Dec-15 15:30N 44°12' E 028°23'8 6.2
2017-Dec-15 14:11N 44°06' E 028°31'1 6.9
2017-Dec-15 14:00N 44°06' E 028°33'3 6.2
2017-Dec-15 13:30N 44°06' E 028°37'1 2.1
2017-Dec-15 13:00N 44°06' E 028°39'1 1.8
2017-Dec-15 12:30N 44°07' E 028°39'0 0.0
2017-Dec-15 12:00N 44°07' E 028°39'0 0.0
2017-Dec-15 11:30N 44°07' E 028°39'0 0.0
2017-Dec-15 11:00N 44°07' E 028°39'0 0.0
2017-Dec-15 10:30N 44°07' E 028°39'0 0.0
2017-Dec-15 10:00N 44°07' E 028°39'0 0.0
2017-Dec-15 09:30N 44°07' E 028°39'0 0.0
2017-Dec-15 09:00N 44°07' E 028°39'0 0.0
2017-Dec-15 08:30N 44°07' E 028°39'0 0.0
2017-Dec-15 08:00N 44°07' E 028°39'0 0.0
2017-Dec-15 07:30N 44°07' E 028°39'0 0.0
2017-Dec-15 07:00N 44°07' E 028°39'0 0.0
2017-Dec-15 06:30N 44°07' E 028°39'0 0.0
2017-Dec-15 06:00N 44°07' E 028°39'0 0.0
2017-Dec-15 05:30N 44°07' E 028°39'0 0.0
2017-Dec-15 05:00N 44°07' E 028°39'0 0.0
2017-Dec-15 04:30N 44°07' E 028°39'0 0.0
2017-Dec-15 04:00N 44°07' E 028°39'0 0.0
2017-Dec-15 02:30N 44°07' E 028°39'0 0.0
2017-Dec-15 01:00N 44°07' E 028°39'0 0.0
2017-Dec-15 00:30N 44°07' E 028°39'0 0.0
2017-Dec-14 18:30N 44°07' E 028°39'0 0.0
2017-Dec-14 18:00N 44°07' E 028°39'0 1.0
2017-Dec-14 17:30N 44°08' E 028°39'2 3.9
2017-Dec-14 17:00N 44°10' E 028°39'0 0.2
2017-Dec-14 16:30N 44°10' E 028°39'0 0.0
2017-Dec-14 16:00N 44°10' E 028°39'0 0.0
2017-Dec-14 15:00N 44°10' E 028°39'0 0.0
2017-Dec-14 14:30N 44°10' E 028°39'0 0.3
2017-Dec-14 14:00N 44°09' E 028°39'0 0.0
2017-Dec-14 13:30N 44°09' E 028°39'0 0.0
2017-Dec-14 13:00N 44°09' E 028°39'0 0.0
2017-Dec-14 12:30N 44°09' E 028°39'0 0.0
2017-Dec-14 12:00N 44°09' E 028°39'0 0.0
2017-Dec-14 11:30N 44°09' E 028°39'0 0.0
2017-Dec-14 11:00N 44°09' E 028°39'0 0.0
2017-Dec-14 10:30N 44°09' E 028°39'0 0.0
2017-Dec-14 10:00N 44°09' E 028°39'0 0.0
2017-Dec-14 09:30N 44°09' E 028°39'0 0.0
2017-Dec-14 09:00N 44°09' E 028°39'0 0.0
2017-Dec-14 08:30N 44°09' E 028°39'0 0.0
2017-Dec-14 08:00N 44°09' E 028°39'0 0.0
2017-Dec-14 07:30N 44°09' E 028°39'0 0.0
2017-Dec-14 07:00N 44°09' E 028°39'0 0.0
2017-Dec-14 06:30N 44°09' E 028°39'0 0.0
2017-Dec-14 06:00N 44°09' E 028°39'0 0.0
2017-Dec-14 05:30N 44°09' E 028°39'0 0.0
2017-Dec-14 05:00N 44°09' E 028°39'0 0.0
2017-Dec-14 04:30N 44°09' E 028°39'0 0.0
2017-Dec-14 04:00N 44°09' E 028°39'0 0.0
2017-Dec-14 03:30N 44°09' E 028°39'0 0.0
2017-Dec-14 03:00N 44°09' E 028°39'0 0.0
2017-Dec-14 02:30N 44°09' E 028°39'0 0.0
2017-Dec-14 02:00N 44°09' E 028°39'0 0.0
2017-Dec-14 01:30N 44°09' E 028°39'0 0.0
2017-Dec-14 01:01N 44°09' E 028°39'0 0.0
2017-Dec-14 00:31N 44°09' E 028°39'0 0.0
2017-Dec-14 00:00N 44°09' E 028°39'0 0.0
2017-Dec-13 23:31N 44°09' E 028°39'0 0.0
2017-Dec-13 23:01N 44°09' E 028°39'0 0.0
2017-Dec-13 22:30N 44°09' E 028°39'0 0.3
2017-Dec-13 22:01N 44°09' E 028°39'0 0.0
2017-Dec-13 21:30N 44°09' E 028°39'0 0.0
2017-Dec-13 21:00N 44°09' E 028°39'0 0.0
2017-Dec-13 20:31N 44°09' E 028°39'0 0.0
2017-Dec-13 20:00N 44°09' E 028°39'0 0.0
2017-Dec-13 19:31N 44°09' E 028°39'0 0.0
2017-Dec-13 19:01N 44°09' E 028°39'0 0.0
2017-Dec-13 18:31N 44°09' E 028°39'0 0.0
2017-Dec-13 18:00N 44°09' E 028°39'0 0.0
2017-Dec-13 17:31N 44°09' E 028°39'0 0.0
2017-Dec-13 17:00N 44°09' E 028°39'0 0.0
2017-Dec-13 16:31N 44°09' E 028°39'0 0.0
2017-Dec-13 16:00N 44°09' E 028°39'0 0.0
2017-Dec-13 15:31N 44°09' E 028°39'0 0.0
2017-Dec-13 15:00N 44°09' E 028°39'0 0.0
2017-Dec-13 14:30N 44°09' E 028°39'0 0.0
2017-Dec-13 14:01N 44°09' E 028°39'0 0.0
2017-Dec-13 13:30N 44°09' E 028°39'0 0.0
2017-Dec-13 13:01N 44°09' E 028°39'0 0.0
2017-Dec-13 12:30N 44°09' E 028°39'0 0.0
2017-Dec-13 12:01N 44°09' E 028°39'0 0.0
2017-Dec-13 11:31N 44°09' E 028°39'0 0.0
2017-Dec-13 11:00N 44°09' E 028°39'0 0.0
2017-Dec-13 10:31N 44°09' E 028°39'0 0.0
2017-Dec-13 10:00N 44°09' E 028°39'0 0.0
2017-Dec-13 09:30N 44°09' E 028°39'0 0.0
2017-Dec-13 09:00N 44°09' E 028°39'0 0.0
2017-Dec-13 08:30N 44°09' E 028°39'1 2.4
2017-Dec-13 08:00N 44°08' E 028°39'1 2.1
2017-Dec-13 07:30N 44°07' E 028°39'0 0.0
2017-Dec-13 07:01N 44°07' E 028°39'0 0.0
2017-Dec-13 06:30N 44°07' E 028°39'0 0.0
2017-Dec-13 06:01N 44°07' E 028°39'0 0.0
2017-Dec-13 05:30N 44°07' E 028°39'0 0.0
2017-Dec-13 05:00N 44°07' E 028°39'0 0.0
2017-Dec-13 04:30N 44°07' E 028°39'0 0.0
2017-Dec-13 04:01N 44°07' E 028°39'0 0.0
2017-Dec-13 03:30N 44°07' E 028°39'0 0.0
2017-Dec-13 03:01N 44°07' E 028°39'0 0.0
2017-Dec-13 02:30N 44°07' E 028°39'0 0.0
2017-Dec-13 02:01N 44°07' E 028°39'0 0.0
2017-Dec-13 01:30N 44°07' E 028°39'0 0.0
2017-Dec-13 01:01N 44°07' E 028°39'0 0.0
2017-Dec-13 00:31N 44°07' E 028°39'0 0.0
2017-Dec-13 00:00N 44°07' E 028°39'0 0.0
2017-Dec-12 23:30N 44°07' E 028°39'0 0.0
2017-Dec-12 23:01N 44°07' E 028°39'0 0.0
2017-Dec-12 22:31N 44°07' E 028°39'0 0.0
2017-Dec-12 22:01N 44°07' E 028°39'0 0.0
2017-Dec-12 21:30N 44°07' E 028°39'0 0.0
2017-Dec-12 21:00N 44°07' E 028°39'0 0.0
2017-Dec-12 20:30N 44°07' E 028°39'0 0.0
2017-Dec-12 20:00N 44°07' E 028°39'0 0.0
2017-Dec-12 19:31N 44°07' E 028°39'0 0.0
2017-Dec-12 19:00N 44°07' E 028°39'0 0.0
2017-Dec-12 18:31N 44°07' E 028°39'0 0.2
2017-Dec-12 18:00N 44°07' E 028°39'0 0.2
2017-Dec-12 17:30N 44°07' E 028°39'1 2.5
2017-Dec-12 17:01N 44°06' E 028°38'1 1.9
2017-Dec-12 16:31N 44°06' E 028°37'1 1.2
2017-Dec-12 16:00N 44°06' E 028°36'1 1.2
2017-Dec-12 15:31N 44°06' E 028°36'2 4.4
2017-Dec-12 14:59N 44°06' E 028°32'6 3.7
2017-Dec-12 13:28N 44°09' E 028°26'2 4.4
2017-Dec-12 13:00N 44°11' E 028°24'2 4.4
2017-Dec-12 12:30N 44°13' E 028°23'2 4.5
2017-Dec-12 12:01N 44°15' E 028°21'2 4.3
2017-Dec-12 11:30N 44°15' E 028°18'2 4.5
2017-Dec-12 11:00N 44°15' E 028°15'2 4.4
2017-Dec-12 10:31N 44°16' E 028°12'2 4.4
2017-Dec-12 10:00N 44°16' E 028°09'2 4.4
2017-Dec-12 09:31N 44°16' E 028°06'2 4.4
2017-Dec-12 08:59N 44°18' E 028°04'2 1.5
2017-Dec-12 07:46N 44°19' E 028°02'  
2017-Dec-09 03:45N 44°19' E 028°03'0 1.5
2017-Dec-09 03:29N 44°18' E 028°03'1 2.5
2017-Dec-09 02:58N 44°17' E 028°04'2 4.1
2017-Dec-09 02:30N 44°16' E 028°07'3 6.3
2017-Dec-09 02:00N 44°16' E 028°11'3 6.2
2017-Dec-09 01:30N 44°15' E 028°15'2 5.0
2017-Dec-09 01:00N 44°15' E 028°19'3 5.1
2017-Dec-09 00:30N 44°14' E 028°22'3 6.5
2017-Dec-09 00:00N 44°11' E 028°24'6 6.4
2017-Dec-08 23:04N 44°06' E 028°28'2 6.6
2017-Dec-08 22:49N 44°06' E 028°31'2 6.5
2017-Dec-08 22:29N 44°06' E 028°34'3 5.4
2017-Dec-08 22:00N 44°06' E 028°37'0 0.9
2017-Dec-08 21:30N 44°06' E 028°38'1 2.6
2017-Dec-08 21:00N 44°07' E 028°39'0 0.0
2017-Dec-08 20:30N 44°07' E 028°39'0 0.0
2017-Dec-08 20:00N 44°07' E 028°39'0 0.0
2017-Dec-08 19:30N 44°07' E 028°39'0 0.0
2017-Dec-08 19:00N 44°07' E 028°39'0 0.0
2017-Dec-08 18:30N 44°07' E 028°39'0 0.2
2017-Dec-08 18:00N 44°07' E 028°39'0 0.0
2017-Dec-08 17:30N 44°07' E 028°39'0 0.0
2017-Dec-08 17:00N 44°07' E 028°39'0 0.0
2017-Dec-08 16:30N 44°07' E 028°39'1 1.2
2017-Dec-08 16:00N 44°08' E 028°39'2 3.2
2017-Dec-08 15:30N 44°09' E 028°39'0 0.0
2017-Dec-08 15:00N 44°09' E 028°39'0 0.0
2017-Dec-08 14:30N 44°09' E 028°39'0 0.0
2017-Dec-08 14:00N 44°09' E 028°39'0 0.0
2017-Dec-08 13:30N 44°09' E 028°39'0 0.0
2017-Dec-08 13:00N 44°09' E 028°39'0 0.0
2017-Dec-08 12:28N 44°09' E 028°39'0 0.0
2017-Dec-08 12:00N 44°09' E 028°39'0 0.0
2017-Dec-08 11:31N 44°09' E 028°39'0 0.0
2017-Dec-08 11:00N 44°09' E 028°39'0 0.0
2017-Dec-08 10:30N 44°09' E 028°39'0 0.0
2017-Dec-08 10:00N 44°09' E 028°39'0 0.0
2017-Dec-08 09:30N 44°09' E 028°39'0 0.0
2017-Dec-08 09:01N 44°09' E 028°39'0 0.0
2017-Dec-08 08:30N 44°09' E 028°39'0 0.0
2017-Dec-08 08:01N 44°09' E 028°39'0 0.1
2017-Dec-08 07:30N 44°09' E 028°39'0 0.1
2017-Dec-08 07:00N 44°09' E 028°39'0 0.0
2017-Dec-08 06:31N 44°09' E 028°39'0 0.0
2017-Dec-08 06:00N 44°09' E 028°39'0 0.0
2017-Dec-08 05:30N 44°09' E 028°39'0 0.0
2017-Dec-08 05:00N 44°09' E 028°39'0 0.0
2017-Dec-08 04:30N 44°09' E 028°39'0 0.0
2017-Dec-08 04:00N 44°09' E 028°39'0 0.0
2017-Dec-08 03:30N 44°09' E 028°39'0 0.0
2017-Dec-08 03:00N 44°09' E 028°39'0 0.0
2017-Dec-08 02:30N 44°09' E 028°39'0 0.0
2017-Dec-08 02:01N 44°09' E 028°39'0 0.0
2017-Dec-08 01:30N 44°09' E 028°39'0 0.0
2017-Dec-08 01:00N 44°09' E 028°39'0 0.0
2017-Dec-08 00:31N 44°09' E 028°39'0 0.0
2017-Dec-08 00:00N 44°09' E 028°39'0 0.0
2017-Dec-07 23:30N 44°09' E 028°39'0 0.0
2017-Dec-07 23:00N 44°09' E 028°39'0 0.0
2017-Dec-07 22:30N 44°09' E 028°39'0 0.0
2017-Dec-07 22:00N 44°09' E 028°39'0 0.0
2017-Dec-07 21:30N 44°09' E 028°39'0 0.0
2017-Dec-07 21:01N 44°09' E 028°39'0 0.0
2017-Dec-07 20:30N 44°09' E 028°39'0 0.0
2017-Dec-07 20:00N 44°09' E 028°39'0 0.0
2017-Dec-07 19:30N 44°09' E 028°39'0 0.0
2017-Dec-07 19:01N 44°09' E 028°39'0 0.3
2017-Dec-07 18:31N 44°09' E 028°39'0 0.0
2017-Dec-07 18:00N 44°09' E 028°39'0 0.0
2017-Dec-07 17:30N 44°09' E 028°39'0 0.0
2017-Dec-07 17:00N 44°09' E 028°39'0 0.0
2017-Dec-07 16:31N 44°09' E 028°39'0 0.0
2017-Dec-07 16:00N 44°09' E 028°39'0 0.0
2017-Dec-07 15:30N 44°09' E 028°39'0 0.0
2017-Dec-07 15:00N 44°09' E 028°39'0 0.0
2017-Dec-07 14:30N 44°09' E 028°39'0 0.0
2017-Dec-07 14:00N 44°09' E 028°39'0 0.0
2017-Dec-07 13:30N 44°09' E 028°39'0 0.0
2017-Dec-07 13:00N 44°09' E 028°39'0 0.0
2017-Dec-07 12:30N 44°09' E 028°39'0 0.0
2017-Dec-07 12:00N 44°09' E 028°39'0 0.0
2017-Dec-07 11:30N 44°09' E 028°39'0 0.0
2017-Dec-07 11:00N 44°09' E 028°39'0 0.0
2017-Dec-07 10:30N 44°09' E 028°39'0 0.0
2017-Dec-07 10:01N 44°09' E 028°39'0 0.0
2017-Dec-07 09:30N 44°09' E 028°39'0 0.0
2017-Dec-07 09:01N 44°09' E 028°39'0 0.0
2017-Dec-07 08:30N 44°09' E 028°39'0 0.0
2017-Dec-07 08:00N 44°09' E 028°39'0 0.0
2017-Dec-07 07:30N 44°09' E 028°39'0 0.0
2017-Dec-07 07:00N 44°09' E 028°39'0 0.0
2017-Dec-07 06:30N 44°09' E 028°39'0 0.0
2017-Dec-07 06:00N 44°09' E 028°39'0 0.0
2017-Dec-07 05:30N 44°09' E 028°39'0 0.0
2017-Dec-07 05:00N 44°09' E 028°39'0 0.1
2017-Dec-07 04:30N 44°10' E 028°39'1 2.8
2017-Dec-07 04:01N 44°08' E 028°39'1 1.9
2017-Dec-07 03:30N 44°07' E 028°39'0 0.0
2017-Dec-07 03:00N 44°07' E 028°39'0 0.0
2017-Dec-07 02:30N 44°07' E 028°39'0 0.0
2017-Dec-07 02:00N 44°07' E 028°39'0 0.0
2017-Dec-07 01:30N 44°07' E 028°39'0 0.0
2017-Dec-07 01:00N 44°07' E 028°39'0 0.0
2017-Dec-07 00:30N 44°07' E 028°39'0 0.0
2017-Dec-07 00:00N 44°07' E 028°39'0 0.0
2017-Dec-06 23:30N 44°07' E 028°39'0 0.0
2017-Dec-06 23:00N 44°07' E 028°39'0 0.0
2017-Dec-06 22:30N 44°07' E 028°39'0 0.0
2017-Dec-06 22:00N 44°07' E 028°39'0 0.0
2017-Dec-06 21:30N 44°07' E 028°39'0 0.0
2017-Dec-06 21:00N 44°07' E 028°39'  
Track history (hours):
 
Tides and Currents Weather Stations Pressure Air Temp Water Temp Dewpoint Dewpoint Depression Visibility Wind Speed Wind Dir Waves Ship Positions

Shir Khan

Last reported at 2017-Dec-15 19:03 UTC. Time now 2018-Jan-18 13:44 UTC.
Position N 44°23' E 028°02'.
Warning: this ship's position is 33 days out of date.

Length 110 m; draft 0.2 m.

Type: Ship. MMSI: 211515160.

Date/timePositionNaut miles runAvg speedWind from/ knotsBaromVisibWave heightAir tempDewpointWater temp
2017-Dec-15 19:03N 44°23' E 028°02'4 4.2
2017-Dec-15 18:06N 44°19' E 028°03'0 3.4
2017-Dec-15 18:00N 44°18' E 028°03'3 6.2
2017-Dec-15 17:31N 44°16' E 028°06'3 6.9
2017-Dec-15 17:00N 44°16' E 028°11'4 7.0
2017-Dec-15 16:31N 44°15' E 028°16'3 7.0
2017-Dec-15 16:00N 44°15' E 028°21'3 6.8
2017-Dec-15 15:30N 44°12' E 028°23'8 6.2
2017-Dec-15 14:11N 44°06' E 028°31'1 6.9
2017-Dec-15 14:00N 44°06' E 028°33'3 6.2
2017-Dec-15 13:30N 44°06' E 028°37'1 2.1
2017-Dec-15 13:00N 44°06' E 028°39'1 1.8
2017-Dec-15 12:30N 44°07' E 028°39'0 0.0
2017-Dec-15 12:00N 44°07' E 028°39'0 0.0
2017-Dec-15 11:30N 44°07' E 028°39'0 0.0
2017-Dec-15 11:00N 44°07' E 028°39'0 0.0
2017-Dec-15 10:30N 44°07' E 028°39'0 0.0
2017-Dec-15 10:00N 44°07' E 028°39'0 0.0
2017-Dec-15 09:30N 44°07' E 028°39'0 0.0
2017-Dec-15 09:00N 44°07' E 028°39'0 0.0
2017-Dec-15 08:30N 44°07' E 028°39'0 0.0
2017-Dec-15 08:00N 44°07' E 028°39'0 0.0
2017-Dec-15 07:30N 44°07' E 028°39'0 0.0
2017-Dec-15 07:00N 44°07' E 028°39'0 0.0
2017-Dec-15 06:30N 44°07' E 028°39'0 0.0
2017-Dec-15 06:00N 44°07' E 028°39'0 0.0
2017-Dec-15 05:30N 44°07' E 028°39'0 0.0
2017-Dec-15 05:00N 44°07' E 028°39'0 0.0
2017-Dec-15 04:30N 44°07' E 028°39'0 0.0
2017-Dec-15 04:00N 44°07' E 028°39'0 0.0
2017-Dec-15 02:30N 44°07' E 028°39'0 0.0
2017-Dec-15 01:00N 44°07' E 028°39'0 0.0
2017-Dec-15 00:30N 44°07' E 028°39'0 0.0
2017-Dec-14 18:30N 44°07' E 028°39'0 0.0
2017-Dec-14 18:00N 44°07' E 028°39'0 1.0
2017-Dec-14 17:30N 44°08' E 028°39'2 3.9
2017-Dec-14 17:00N 44°10' E 028°39'0 0.2
2017-Dec-14 16:30N 44°10' E 028°39'0 0.0
2017-Dec-14 16:00N 44°10' E 028°39'0 0.0
2017-Dec-14 15:00N 44°10' E 028°39'0 0.0
2017-Dec-14 14:30N 44°10' E 028°39'0 0.3
2017-Dec-14 14:00N 44°09' E 028°39'0 0.0
2017-Dec-14 13:30N 44°09' E 028°39'0 0.0
2017-Dec-14 13:00N 44°09' E 028°39'0 0.0
2017-Dec-14 12:30N 44°09' E 028°39'0 0.0
2017-Dec-14 12:00N 44°09' E 028°39'0 0.0
2017-Dec-14 11:30N 44°09' E 028°39'0 0.0
2017-Dec-14 11:00N 44°09' E 028°39'0 0.0
2017-Dec-14 10:30N 44°09' E 028°39'0 0.0
2017-Dec-14 10:00N 44°09' E 028°39'0 0.0
2017-Dec-14 09:30N 44°09' E 028°39'0 0.0
2017-Dec-14 09:00N 44°09' E 028°39'0 0.0
2017-Dec-14 08:30N 44°09' E 028°39'0 0.0
2017-Dec-14 08:00N 44°09' E 028°39'0 0.0
2017-Dec-14 07:30N 44°09' E 028°39'0 0.0
2017-Dec-14 07:00N 44°09' E 028°39'0 0.0
2017-Dec-14 06:30N 44°09' E 028°39'0 0.0
2017-Dec-14 06:00N 44°09' E 028°39'0 0.0
2017-Dec-14 05:30N 44°09' E 028°39'0 0.0
2017-Dec-14 05:00N 44°09' E 028°39'0 0.0
2017-Dec-14 04:30N 44°09' E 028°39'0 0.0
2017-Dec-14 04:00N 44°09' E 028°39'0 0.0
2017-Dec-14 03:30N 44°09' E 028°39'0 0.0
2017-Dec-14 03:00N 44°09' E 028°39'0 0.0
2017-Dec-14 02:30N 44°09' E 028°39'0 0.0
2017-Dec-14 02:00N 44°09' E 028°39'0 0.0
2017-Dec-14 01:30N 44°09' E 028°39'0 0.0
2017-Dec-14 01:01N 44°09' E 028°39'0 0.0
2017-Dec-14 00:31N 44°09' E 028°39'0 0.0
2017-Dec-14 00:00N 44°09' E 028°39'0 0.0
2017-Dec-13 23:31N 44°09' E 028°39'0 0.0
2017-Dec-13 23:01N 44°09' E 028°39'0 0.0
2017-Dec-13 22:30N 44°09' E 028°39'0 0.3
2017-Dec-13 22:01N 44°09' E 028°39'0 0.0
2017-Dec-13 21:30N 44°09' E 028°39'0 0.0
2017-Dec-13 21:00N 44°09' E 028°39'0 0.0
2017-Dec-13 20:31N 44°09' E 028°39'0 0.0
2017-Dec-13 20:00N 44°09' E 028°39'0 0.0
2017-Dec-13 19:31N 44°09' E 028°39'0 0.0
2017-Dec-13 19:01N 44°09' E 028°39'0 0.0
2017-Dec-13 18:31N 44°09' E 028°39'0 0.0
2017-Dec-13 18:00N 44°09' E 028°39'0 0.0
2017-Dec-13 17:31N 44°09' E 028°39'0 0.0
2017-Dec-13 17:00N 44°09' E 028°39'0 0.0
2017-Dec-13 16:31N 44°09' E 028°39'0 0.0
2017-Dec-13 16:00N 44°09' E 028°39'0 0.0
2017-Dec-13 15:31N 44°09' E 028°39'0 0.0
2017-Dec-13 15:00N 44°09' E 028°39'0 0.0
2017-Dec-13 14:30N 44°09' E 028°39'0 0.0
2017-Dec-13 14:01N 44°09' E 028°39'0 0.0
2017-Dec-13 13:30N 44°09' E 028°39'0 0.0
2017-Dec-13 13:01N 44°09' E 028°39'0 0.0
2017-Dec-13 12:30N 44°09' E 028°39'0 0.0
2017-Dec-13 12:01N 44°09' E 028°39'0 0.0
2017-Dec-13 11:31N 44°09' E 028°39'0 0.0
2017-Dec-13 11:00N 44°09' E 028°39'0 0.0
2017-Dec-13 10:31N 44°09' E 028°39'0 0.0
2017-Dec-13 10:00N 44°09' E 028°39'0 0.0
2017-Dec-13 09:30N 44°09' E 028°39'0 0.0
2017-Dec-13 09:00N 44°09' E 028°39'0 0.0
2017-Dec-13 08:30N 44°09' E 028°39'1 2.4
2017-Dec-13 08:00N 44°08' E 028°39'1 2.1
2017-Dec-13 07:30N 44°07' E 028°39'0 0.0
2017-Dec-13 07:01N 44°07' E 028°39'0 0.0
2017-Dec-13 06:30N 44°07' E 028°39'0 0.0
2017-Dec-13 06:01N 44°07' E 028°39'0 0.0
2017-Dec-13 05:30N 44°07' E 028°39'0 0.0
2017-Dec-13 05:00N 44°07' E 028°39'0 0.0
2017-Dec-13 04:30N 44°07' E 028°39'0 0.0
2017-Dec-13 04:01N 44°07' E 028°39'0 0.0
2017-Dec-13 03:30N 44°07' E 028°39'0 0.0
2017-Dec-13 03:01N 44°07' E 028°39'0 0.0
2017-Dec-13 02:30N 44°07' E 028°39'0 0.0
2017-Dec-13 02:01N 44°07' E 028°39'0 0.0
2017-Dec-13 01:30N 44°07' E 028°39'0 0.0
2017-Dec-13 01:01N 44°07' E 028°39'0 0.0
2017-Dec-13 00:31N 44°07' E 028°39'0 0.0
2017-Dec-13 00:00N 44°07' E 028°39'0 0.0
2017-Dec-12 23:30N 44°07' E 028°39'0 0.0
2017-Dec-12 23:01N 44°07' E 028°39'0 0.0
2017-Dec-12 22:31N 44°07' E 028°39'0 0.0
2017-Dec-12 22:01N 44°07' E 028°39'0 0.0
2017-Dec-12 21:30N 44°07' E 028°39'0 0.0
2017-Dec-12 21:00N 44°07' E 028°39'0 0.0
2017-Dec-12 20:30N 44°07' E 028°39'0 0.0
2017-Dec-12 20:00N 44°07' E 028°39'0 0.0
2017-Dec-12 19:31N 44°07' E 028°39'0 0.0
2017-Dec-12 19:00N 44°07' E 028°39'0 0.0
2017-Dec-12 18:31N 44°07' E 028°39'0 0.2
2017-Dec-12 18:00N 44°07' E 028°39'0 0.2
2017-Dec-12 17:30N 44°07' E 028°39'1 2.5
2017-Dec-12 17:01N 44°06' E 028°38'1 1.9
2017-Dec-12 16:31N 44°06' E 028°37'1 1.2
2017-Dec-12 16:00N 44°06' E 028°36'1 1.2
2017-Dec-12 15:31N 44°06' E 028°36'2 4.4
2017-Dec-12 14:59N 44°06' E 028°32'6 3.7
2017-Dec-12 13:28N 44°09' E 028°26'2 4.4
2017-Dec-12 13:00N 44°11' E 028°24'2 4.4
2017-Dec-12 12:30N 44°13' E 028°23'2 4.5
2017-Dec-12 12:01N 44°15' E 028°21'2 4.3
2017-Dec-12 11:30N 44°15' E 028°18'2 4.5
2017-Dec-12 11:00N 44°15' E 028°15'2 4.4
2017-Dec-12 10:31N 44°16' E 028°12'2 4.4
2017-Dec-12 10:00N 44°16' E 028°09'2 4.4
2017-Dec-12 09:31N 44°16' E 028°06'2 4.4
2017-Dec-12 08:59N 44°18' E 028°04'2 1.5
2017-Dec-12 07:46N 44°19' E 028°02'  
2017-Dec-09 03:45N 44°19' E 028°03'0 1.5
2017-Dec-09 03:29N 44°18' E 028°03'1 2.5
2017-Dec-09 02:58N 44°17' E 028°04'2 4.1
2017-Dec-09 02:30N 44°16' E 028°07'3 6.3
2017-Dec-09 02:00N 44°16' E 028°11'3 6.2
2017-Dec-09 01:30N 44°15' E 028°15'2 5.0
2017-Dec-09 01:00N 44°15' E 028°19'3 5.1
2017-Dec-09 00:30N 44°14' E 028°22'3 6.5
2017-Dec-09 00:00N 44°11' E 028°24'6 6.4
2017-Dec-08 23:04N 44°06' E 028°28'2 6.6
2017-Dec-08 22:49N 44°06' E 028°31'2 6.5
2017-Dec-08 22:29N 44°06' E 028°34'3 5.4
2017-Dec-08 22:00N 44°06' E 028°37'0 0.9
2017-Dec-08 21:30N 44°06' E 028°38'1 2.6
2017-Dec-08 21:00N 44°07' E 028°39'0 0.0
2017-Dec-08 20:30N 44°07' E 028°39'0 0.0
2017-Dec-08 20:00N 44°07' E 028°39'0 0.0
2017-Dec-08 19:30N 44°07' E 028°39'0 0.0
2017-Dec-08 19:00N 44°07' E 028°39'0 0.0
2017-Dec-08 18:30N 44°07' E 028°39'0 0.2
2017-Dec-08 18:00N 44°07' E 028°39'0 0.0
2017-Dec-08 17:30N 44°07' E 028°39'0 0.0
2017-Dec-08 17:00N 44°07' E 028°39'0 0.0
2017-Dec-08 16:30N 44°07' E 028°39'1 1.2
2017-Dec-08 16:00N 44°08' E 028°39'2 3.2
2017-Dec-08 15:30N 44°09' E 028°39'0 0.0
2017-Dec-08 15:00N 44°09' E 028°39'0 0.0
2017-Dec-08 14:30N 44°09' E 028°39'0 0.0
2017-Dec-08 14:00N 44°09' E 028°39'0 0.0
2017-Dec-08 13:30N 44°09' E 028°39'0 0.0
2017-Dec-08 13:00N 44°09' E 028°39'0 0.0
2017-Dec-08 12:28N 44°09' E 028°39'0 0.0
2017-Dec-08 12:00N 44°09' E 028°39'0 0.0
2017-Dec-08 11:31N 44°09' E 028°39'0 0.0
2017-Dec-08 11:00N 44°09' E 028°39'0 0.0
2017-Dec-08 10:30N 44°09' E 028°39'0 0.0
2017-Dec-08 10:00N 44°09' E 028°39'0 0.0
2017-Dec-08 09:30N 44°09' E 028°39'0 0.0
2017-Dec-08 09:01N 44°09' E 028°39'0 0.0
2017-Dec-08 08:30N 44°09' E 028°39'0 0.0
2017-Dec-08 08:01N 44°09' E 028°39'0 0.1
2017-Dec-08 07:30N 44°09' E 028°39'0 0.1
2017-Dec-08 07:00N 44°09' E 028°39'0 0.0
2017-Dec-08 06:31N 44°09' E 028°39'0 0.0
2017-Dec-08 06:00N 44°09' E 028°39'0 0.0
2017-Dec-08 05:30N 44°09' E 028°39'0 0.0
2017-Dec-08 05:00N 44°09' E 028°39'0 0.0
2017-Dec-08 04:30N 44°09' E 028°39'0 0.0
2017-Dec-08 04:00N 44°09' E 028°39'0 0.0
2017-Dec-08 03:30N 44°09' E 028°39'0 0.0
2017-Dec-08 03:00N 44°09' E 028°39'0 0.0
2017-Dec-08 02:30N 44°09' E 028°39'0 0.0
2017-Dec-08 02:01N 44°09' E 028°39'0 0.0
2017-Dec-08 01:30N 44°09' E 028°39'0 0.0
2017-Dec-08 01:00N 44°09' E 028°39'0 0.0
2017-Dec-08 00:31N 44°09' E 028°39'0 0.0
2017-Dec-08 00:00N 44°09' E 028°39'0 0.0
2017-Dec-07 23:30N 44°09' E 028°39'0 0.0
2017-Dec-07 23:00N 44°09' E 028°39'0 0.0
2017-Dec-07 22:30N 44°09' E 028°39'0 0.0
2017-Dec-07 22:00N 44°09' E 028°39'0 0.0
2017-Dec-07 21:30N 44°09' E 028°39'0 0.0
2017-Dec-07 21:01N 44°09' E 028°39'0 0.0
2017-Dec-07 20:30N 44°09' E 028°39'0 0.0
2017-Dec-07 20:00N 44°09' E 028°39'0 0.0
2017-Dec-07 19:30N 44°09' E 028°39'0 0.0
2017-Dec-07 19:01N 44°09' E 028°39'0 0.3
2017-Dec-07 18:31N 44°09' E 028°39'0 0.0
2017-Dec-07 18:00N 44°09' E 028°39'0 0.0
2017-Dec-07 17:30N 44°09' E 028°39'0 0.0
2017-Dec-07 17:00N 44°09' E 028°39'0 0.0
2017-Dec-07 16:31N 44°09' E 028°39'0 0.0
2017-Dec-07 16:00N 44°09' E 028°39'0 0.0
2017-Dec-07 15:30N 44°09' E 028°39'0 0.0
2017-Dec-07 15:00N 44°09' E 028°39'0 0.0
2017-Dec-07 14:30N 44°09' E 028°39'0 0.0
2017-Dec-07 14:00N 44°09' E 028°39'0 0.0
2017-Dec-07 13:30N 44°09' E 028°39'0 0.0
2017-Dec-07 13:00N 44°09' E 028°39'0 0.0
2017-Dec-07 12:30N 44°09' E 028°39'0 0.0
2017-Dec-07 12:00N 44°09' E 028°39'0 0.0
2017-Dec-07 11:30N 44°09' E 028°39'0 0.0
2017-Dec-07 11:00N 44°09' E 028°39'0 0.0
2017-Dec-07 10:30N 44°09' E 028°39'0 0.0
2017-Dec-07 10:01N 44°09' E 028°39'0 0.0
2017-Dec-07 09:30N 44°09' E 028°39'0 0.0
2017-Dec-07 09:01N 44°09' E 028°39'0 0.0
2017-Dec-07 08:30N 44°09' E 028°39'0 0.0
2017-Dec-07 08:00N 44°09' E 028°39'0 0.0
2017-Dec-07 07:30N 44°09' E 028°39'0 0.0
2017-Dec-07 07:00N 44°09' E 028°39'0 0.0
2017-Dec-07 06:30N 44°09' E 028°39'0 0.0
2017-Dec-07 06:00N 44°09' E 028°39'0 0.0
2017-Dec-07 05:30N 44°09' E 028°39'0 0.0
2017-Dec-07 05:00N 44°09' E 028°39'0 0.1
2017-Dec-07 04:30N 44°10' E 028°39'1 2.8
2017-Dec-07 04:01N 44°08' E 028°39'1 1.9
2017-Dec-07 03:30N 44°07' E 028°39'0 0.0
2017-Dec-07 03:00N 44°07' E 028°39'0 0.0
2017-Dec-07 02:30N 44°07' E 028°39'0 0.0
2017-Dec-07 02:00N 44°07' E 028°39'0 0.0
2017-Dec-07 01:30N 44°07' E 028°39'0 0.0
2017-Dec-07 01:00N 44°07' E 028°39'0 0.0
2017-Dec-07 00:30N 44°07' E 028°39'0 0.0
2017-Dec-07 00:00N 44°07' E 028°39'0 0.0
2017-Dec-06 23:30N 44°07' E 028°39'0 0.0
2017-Dec-06 23:00N 44°07' E 028°39'0 0.0
2017-Dec-06 22:30N 44°07' E 028°39'0 0.0
2017-Dec-06 22:00N 44°07' E 028°39'0 0.0
2017-Dec-06 21:30N 44°07' E 028°39'0 0.0
2017-Dec-06 21:00N 44°07' E 028°39'  

Dump ship's entire track history